Time;durP1;ratioP1;P1;durP2;ratioP2;P2;SDS_P1;SDS_P2;PMS_P1;PMS_P2;Temp;Humidity;BMP_temperature;BMP_pressure;BME280_temperature;BME280_humidity;BME280_pressure;Samples;Min_cycle;Max_cycle;Signal;HPM_P1;HPM_P2
2024/04/11 00:00:48;;;;;;;3.80;1.93;;;8.70;57.10;;;10.77;44.08;99069.31;5415486;26;20035;-39
2024/04/11 00:03:17;;;;;;;4.50;2.27;;;8.70;57.30;;;10.75;43.89;99064.09;5415567;26;20035;-39
2024/04/11 00:05:45;;;;;;;3.60;2.47;;;8.70;57.40;;;10.74;44.13;99066.88;5414377;26;20031;-39
2024/04/11 00:08:13;;;;;;;5.80;3.63;;;8.70;57.20;;;10.74;44.49;99064.22;5415740;26;20463;-39
2024/04/11 00:10:41;;;;;;;6.07;2.20;;;8.70;57.00;;;10.74;43.91;99050.91;5416187;26;20035;-39
2024/04/11 00:13:10;;;;;;;3.03;1.73;;;8.70;56.60;;;10.74;43.82;99056.22;5412932;26;20027;-39
2024/04/11 00:15:39;;;;;;;3.73;1.80;;;8.70;56.10;;;10.72;43.67;99048.41;5416033;26;20039;-39
2024/04/11 00:18:07;;;;;;;7.07;2.27;;;8.70;56.20;;;10.73;43.69;99055.41;5416429;26;20035;-39
2024/04/11 00:20:35;;;;;;;3.83;1.90;;;8.70;55.60;;;10.70;43.64;99055.66;5414017;26;20035;-40
2024/04/11 00:23:03;;;;;;;9.53;2.93;;;8.70;55.60;;;10.71;43.60;99051.19;5412825;26;20032;-39
2024/04/11 00:25:31;;;;;;;3.10;1.73;;;8.80;55.30;;;10.69;43.76;99045.97;5415553;26;20035;-39
2024/04/11 00:27:59;;;;;;;4.27;2.10;;;8.70;55.90;;;10.69;43.80;99053.13;5415502;26;20043;-39
2024/04/11 00:30:27;;;;;;;7.43;2.43;;;8.70;55.80;;;10.68;43.64;99048.75;5415795;26;20027;-39
2024/04/11 00:32:55;;;;;;;5.37;2.57;;;8.70;55.60;;;10.62;43.88;99040.31;5414914;26;20032;-39
2024/04/11 00:35:23;;;;;;;3.77;1.87;;;8.60;56.30;;;10.59;43.91;99039.72;5415442;26;20050;-39
2024/04/11 00:37:51;;;;;;;3.47;1.60;;;8.50;57.00;;;10.56;43.93;99048.81;5415759;26;20035;-39
2024/04/11 00:40:20;;;;;;;3.77;2.00;;;8.60;56.60;;;10.57;44.10;99047.84;5413721;26;20035;-39
2024/04/11 00:42:48;;;;;;;3.20;1.93;;;8.60;56.40;;;10.55;44.29;99043.63;5414422;26;20370;-39
2024/04/11 00:45:17;;;;;;;4.07;2.57;;;8.50;56.80;;;10.54;44.17;99048.09;5415381;26;20475;-39
2024/04/11 00:47:44;;;;;;;6.10;2.00;;;8.50;56.70;;;10.51;44.02;99053.69;5415218;26;20031;-39
2024/04/11 00:50:13;;;;;;;4.03;2.13;;;8.50;56.40;;;10.50;43.91;99059.97;5415425;26;20040;-39
2024/04/11 00:52:43;;;;;;;3.50;2.23;;;8.50;56.30;;;10.46;44.25;99055.03;5414835;26;20043;-40
2024/04/11 00:55:12;;;;;;;8.37;2.83;;;8.40;57.10;;;10.41;44.29;99068.69;5383293;26;20120;-39
2024/04/11 00:57:40;;;;;;;6.47;2.00;;;8.30;57.20;;;10.37;44.55;99067.25;5415101;26;20067;-39
2024/04/11 01:00:10;;;;;;;6.97;2.23;;;8.30;58.00;;;10.35;44.73;99061.22;5413278;26;20040;-41
2024/04/11 01:02:38;;;;;;;5.30;2.00;;;8.30;57.80;;;10.30;44.71;99061.59;5413184;26;20043;-40
2024/04/11 01:05:06;;;;;;;4.07;2.67;;;8.20;58.50;;;10.26;44.89;99054.81;5414299;26;20035;-39
2024/04/11 01:07:34;;;;;;;7.03;3.33;;;8.10;59.00;;;10.22;44.98;99064.84;5415400;26;20032;-41
2024/04/11 01:10:07;;;;;;;4.63;2.03;;;8.00;58.90;;;10.22;44.93;99059.53;5414871;26;20035;-39
2024/04/11 01:12:35;;;;;;;3.25;1.75;;;8.10;58.70;;;10.21;45.09;99057.81;5413202;26;20028;-39
2024/04/11 01:15:04;;;;;;;3.30;2.00;;;8.20;58.60;;;10.18;45.20;99057.25;5411327;26;20593;-39
2024/04/11 01:17:31;;;;;;;4.70;2.43;;;8.10;59.30;;;10.13;45.26;99059.44;5413001;26;20499;-39
2024/04/11 01:20:00;;;;;;;4.80;2.67;;;8.00;59.20;;;10.10;45.31;99059.66;5412762;26;20032;-39
2024/04/11 01:22:28;;;;;;;4.33;2.27;;;7.90;59.80;;;10.06;45.32;99061.72;5414876;26;20060;-39
2024/04/11 01:24:58;;;;;;;4.53;2.57;;;7.90;60.00;;;10.04;45.32;99064.53;5413803;26;20044;-39
2024/04/11 01:27:29;;;;;;;5.83;2.33;;;7.90;59.70;;;10.03;45.60;99068.16;5362791;26;20037;-41
2024/04/11 01:29:57;;;;;;;4.43;2.27;;;7.90;59.40;;;10.01;45.38;99063.94;5407853;26;20039;-39
2024/04/11 01:32:27;;;;;;;4.13;2.17;;;7.90;59.60;;;10.00;45.48;99067.53;5397534;26;20027;-39
2024/04/11 01:34:59;;;;;;;5.90;2.03;;;7.90;59.70;;;9.96;45.36;99060.78;5407725;26;20032;-39
2024/04/11 01:37:28;;;;;;;3.47;2.30;;;7.80;59.80;;;9.94;45.64;99060.06;5365402;26;20044;-39
2024/04/11 01:39:56;;;;;;;3.50;2.10;;;7.80;60.10;;;9.91;45.73;99057.66;5377082;26;20004;-39
2024/04/11 01:42:24;;;;;;;4.50;2.20;;;7.80;59.80;;;9.91;45.70;99050.50;5379126;26;20044;-38
2024/04/11 01:44:52;;;;;;;4.73;2.17;;;7.80;59.70;;;9.89;45.58;99055.13;5378903;26;20028;-39
2024/04/11 01:47:19;;;;;;;6.53;2.70;;;7.80;59.80;;;9.85;45.91;99049.19;5379116;26;20032;-48
2024/04/11 01:49:47;;;;;;;5.60;2.80;;;7.80;60.10;;;9.84;45.86;99052.78;5379278;26;20040;-39
2024/04/11 01:52:15;;;;;;;4.47;2.07;;;7.80;60.50;;;9.80;45.90;99046.03;5378897;26;20032;-40
2024/04/11 01:54:43;;;;;;;5.00;2.57;;;7.70;60.60;;;9.79;45.89;99047.03;5377017;26;20040;-40
2024/04/11 01:57:10;;;;;;;4.73;2.57;;;7.70;60.70;;;9.78;45.74;99052.47;5378854;26;20032;-40
2024/04/11 01:59:38;;;;;;;3.37;1.90;;;7.60;59.90;;;9.77;45.76;99051.63;5378504;26;20032;-40
2024/04/11 02:02:08;;;;;;;4.07;2.50;;;7.70;60.10;;;9.74;45.78;99043.88;5378878;26;20028;-40
2024/04/11 02:04:36;;;;;;;5.47;2.50;;;7.70;60.30;;;9.69;45.94;99040.72;5375941;26;20480;-40
2024/04/11 02:07:04;;;;;;;3.77;2.57;;;7.60;60.70;;;9.66;46.23;99035.66;5376925;26;20032;-40
2024/04/11 02:09:32;;;;;;;4.60;2.37;;;7.50;61.30;;;9.66;46.23;99039.16;5378809;26;20151;-40
2024/04/11 02:12:00;;;;;;;7.90;3.37;;;7.50;60.70;;;9.67;46.15;99042.66;5377097;26;20268;-40
2024/04/11 02:14:31;;;;;;;6.63;2.63;;;7.60;60.40;;;9.66;46.17;99051.63;5378278;26;20035;-40
2024/04/11 02:16:59;;;;;;;5.50;3.07;;;7.60;60.80;;;9.62;46.37;99042.19;5391662;26;20072;-40
2024/04/11 02:19:28;;;;;;;4.43;2.57;;;7.50;61.30;;;9.61;46.21;99040.47;5378753;26;20040;-40
2024/04/11 02:21:56;;;;;;;2.40;2.10;;;7.50;61.00;;;9.59;46.18;99048.56;5378527;26;20032;-40
2024/04/11 02:24:24;;;;;;;5.20;3.20;;;7.50;60.80;;;9.59;45.97;99055.72;5377923;26;20131;-41
2024/04/11 02:26:52;;;;;;;7.83;3.10;;;7.50;60.40;;;9.56;46.11;99062.13;5377626;26;20040;-40
2024/04/11 02:29:21;;;;;;;5.23;2.67;;;7.50;60.50;;;9.56;46.18;99059.47;5378479;26;20400;-40
2024/04/11 02:31:49;;;;;;;3.70;2.20;;;7.50;60.70;;;9.56;46.16;99066.59;5378421;26;20037;-40
2024/04/11 02:34:17;;;;;;;5.97;2.60;;;7.50;60.90;;;9.51;46.40;99053.66;5377931;26;20048;-40
2024/04/11 02:36:49;;;;;;;8.73;3.97;;;7.40;61.30;;;9.47;46.65;99054.88;5361940;26;20106;-40
2024/04/11 02:39:17;;;;;;;5.17;2.30;;;7.30;62.10;;;9.45;46.43;99056.78;5377915;26;20055;-40
2024/04/11 02:41:46;;;;;;;8.07;2.70;;;7.30;61.80;;;9.43;46.80;99059.56;5405428;26;20048;-40
2024/04/11 02:44:19;;;;;;;5.17;2.70;;;7.30;62.30;;;9.40;46.91;99054.50;5378011;26;20040;-40
2024/04/11 02:46:47;;;;;;;3.35;2.20;;;7.20;62.50;;;9.35;46.82;99058.50;5391234;26;20040;-40
2024/04/11 02:49:15;;;;;;;4.60;2.60;;;7.20;62.70;;;9.34;46.65;99062.94;5378061;26;20040;-40
2024/04/11 02:51:44;;;;;;;6.00;2.50;;;7.20;62.30;;;9.33;46.97;99060.41;5379118;26;20035;-40
2024/04/11 02:54:12;;;;;;;9.90;3.33;;;7.20;62.60;;;9.31;47.19;99062.34;5375480;26;20028;-40
2024/04/11 02:56:41;;;;;;;4.73;2.37;;;7.20;62.40;;;9.29;47.21;99066.94;5377893;26;20036;-40
2024/04/11 02:59:11;;;;;;;3.13;2.03;;;7.10;62.50;;;9.25;47.16;99061.84;5378428;26;20047;-40
2024/04/11 03:01:39;;;;;;;5.63;2.70;;;7.10;62.90;;;9.24;47.02;99062.81;5377597;26;20507;-40
2024/04/11 03:04:08;;;;;;;4.13;1.93;;;7.20;62.60;;;9.24;47.09;99062.81;5377401;26;20387;-40
2024/04/11 03:06:37;;;;;;;6.10;2.60;;;7.10;62.30;;;9.23;46.91;99062.94;5380856;26;20040;-40
2024/04/11 03:09:09;;;;;;;5.37;2.50;;;7.10;61.80;;;9.23;47.20;99063.78;5381379;26;20472;-40
2024/04/11 03:11:42;;;;;;;6.30;2.50;;;7.20;61.90;;;9.25;46.82;99061.00;5379494;26;20040;-40
2024/04/11 03:14:10;;;;;;;8.27;2.50;;;7.20;61.50;;;9.24;46.78;99065.47;5380413;26;20345;-41
2024/04/11 03:16:38;;;;;;;5.13;2.47;;;7.20;61.50;;;9.23;46.82;99052.31;5380600;26;20412;-40
2024/04/11 03:19:06;;;;;;;6.37;3.47;;;7.20;61.70;;;9.25;46.97;99066.31;5381259;26;20028;-40
2024/04/11 03:21:34;;;;;;;8.10;2.67;;;7.20;61.40;;;9.25;47.00;99066.31;5379525;26;20032;-41
2024/04/11 03:24:02;;;;;;;6.50;2.53;;;7.30;61.00;;;9.24;47.04;99078.75;5376925;26;20039;-40
2024/04/11 03:26:30;;;;;;;5.93;3.07;;;7.30;60.60;;;9.24;46.79;99070.78;5381115;26;20374;-40
2024/04/11 03:28:58;;;;;;;3.67;2.43;;;7.20;60.90;;;9.25;47.00;99068.97;5381173;26;20683;-40
2024/04/11 03:31:26;;;;;;;4.50;2.53;;;7.20;60.70;;;9.23;46.96;99066.44;5381269;26;20036;-41
2024/04/11 03:33:57;;;;;;;5.07;2.50;;;7.20;61.60;;;9.22;46.98;99059.41;5380344;26;20048;-40
2024/04/11 03:36:25;;;;;;;5.00;2.63;;;7.20;61.70;;;9.23;46.81;99068.25;5380893;26;20036;-40
2024/04/11 03:38:54;;;;;;;7.97;2.47;;;7.20;61.50;;;9.25;46.87;99082.28;5381100;26;20040;-41
2024/04/11 03:41:23;;;;;;;4.03;2.40;;;7.20;61.70;;;9.19;46.93;99077.41;5380927;26;20035;-40
2024/04/11 03:43:54;;;;;;;4.43;2.50;;;7.10;61.60;;;9.15;46.87;99079.47;5380612;26;20032;-41
2024/04/11 03:46:23;;;;;;;5.23;2.77;;;7.10;62.00;;;9.12;46.93;99078.84;5380968;26;20028;-40
2024/04/11 03:48:56;;;;;;;4.33;2.60;;;7.00;62.20;;;9.08;47.11;99091.53;5380321;26;20464;-40
2024/04/11 03:51:32;;;;;;;5.40;2.78;;;6.90;62.30;;;9.05;47.53;99089.94;5380618;26;20031;-41
2024/04/11 03:54:03;;;;;;;3.53;2.63;;;6.90;62.80;;;9.05;47.27;99091.75;5379902;26;20049;-40
2024/04/11 03:56:32;;;;;;;5.43;3.33;;;6.90;63.20;;;9.02;47.53;99092.81;5408328;26;20039;-40
2024/04/11 03:59:00;;;;;;;4.53;2.33;;;6.90;63.10;;;9.02;47.40;99086.69;5380863;26;20108;-40
2024/04/11 04:01:28;;;;;;;4.93;2.77;;;6.90;63.20;;;9.01;47.47;99085.81;5380827;26;20040;-40
2024/04/11 04:04:03;;;;;;;5.77;2.67;;;7.00;63.20;;;8.99;47.32;99090.41;5378306;26;20410;-40
2024/04/11 04:06:34;;;;;;;3.77;2.20;;;6.90;63.10;;;8.98;47.79;99095.84;5380928;26;20024;-40
2024/04/11 04:09:07;;;;;;;8.20;2.57;;;6.90;63.50;;;8.98;47.57;99098.50;5380936;26;20035;-41
2024/04/11 04:11:37;;;;;;;;;;;6.90;63.30;;;8.94;47.51;99095.22;5381075;26;20032;-41
2024/04/11 04:14:09;;;;;;;6.33;2.90;;;6.90;64.00;;;8.94;47.53;99100.53;5378150;26;19949;-40
2024/04/11 04:16:38;;;;;;;5.93;3.30;;;6.80;63.30;;;8.93;47.86;99090.03;5379367;26;20053;-40
2024/04/11 04:19:07;;;;;;;5.00;3.00;;;6.80;63.70;;;8.92;47.72;99093.63;5380352;26;20041;-40
2024/04/11 04:21:36;;;;;;;8.10;3.73;;;6.80;63.30;;;8.91;47.82;99095.44;5380212;26;20043;-40
2024/04/11 04:24:05;;;;;;;5.17;2.83;;;6.80;63.00;;;8.89;47.57;99100.03;5380047;26;20068;-40
2024/04/11 04:26:36;;;;;;;6.80;3.93;;;6.80;63.00;;;8.86;47.85;99105.59;5380239;26;20036;-40
2024/04/11 04:29:04;;;;;;;6.63;2.80;;;6.80;63.30;;;8.86;48.12;99108.25;5380267;26;20475;-40
2024/04/11 04:31:33;;;;;;;8.43;3.37;;;6.80;63.70;;;8.83;47.83;99106.63;5380291;26;20044;-40
2024/04/11 04:34:03;;;;;;;5.80;2.90;;;6.70;64.30;;;8.81;48.18;99119.19;5379472;26;20503;-40
2024/04/11 04:36:39;;;;;;;5.67;2.70;;;6.70;64.60;;;8.81;47.89;99124.50;5378359;26;20040;-40
2024/04/11 04:39:13;;;;;;;4.53;2.40;;;6.70;64.30;;;8.79;48.34;99121.09;5378697;26;20507;-40
2024/04/11 04:41:44;;;;;;;12.37;2.97;;;6.70;64.90;;;8.76;48.16;99129.31;5365851;26;20131;-40
2024/04/11 04:44:12;;;;;;;5.87;2.87;;;6.60;65.40;;;8.72;48.48;99130.47;5379731;26;20044;-40
2024/04/11 04:46:41;;;;;;;6.07;3.20;;;6.50;65.80;;;8.70;48.54;99139.53;5379798;26;20036;-40
2024/04/11 04:49:09;;;;;;;4.53;3.00;;;6.50;66.00;;;8.65;48.77;99134.56;5379837;26;20044;-40
2024/04/11 04:51:41;;;;;;;3.93;3.03;;;6.50;65.90;;;8.60;48.74;99140.19;5379705;26;20032;-41
2024/04/11 04:54:11;;;;;;;8.23;2.80;;;6.50;66.40;;;8.62;48.96;99140.94;5379405;26;20036;-41
2024/04/11 04:56:43;;;;;;;5.30;2.90;;;6.50;66.00;;;8.65;48.70;99145.19;5380494;26;20032;-41
2024/04/11 04:59:12;;;;;;;7.67;3.00;;;6.60;65.50;;;8.65;48.81;99139.88;5379944;26;20041;-40
2024/04/11 05:01:40;;;;;;;5.50;2.83;;;6.50;65.90;;;8.62;49.00;99148.91;5379628;26;20028;-40
2024/04/11 05:04:13;;;;;;;8.23;3.60;;;6.50;66.10;;;8.64;48.50;99143.47;5378846;26;20048;-40
2024/04/11 05:06:45;;;;;;;8.07;3.57;;;6.50;65.40;;;8.63;48.53;99147.94;5379836;26;20059;-40
2024/04/11 05:09:13;;;;;;;7.00;3.10;;;6.50;65.20;;;8.59;48.35;99156.25;5379894;26;20045;-40
2024/04/11 05:11:44;;;;;;;4.97;2.50;;;6.50;65.70;;;8.56;48.68;99157.31;5379505;26;20464;-41
2024/04/11 05:14:12;;;;;;;7.63;3.47;;;6.40;66.10;;;8.54;49.04;99151.25;5391441;26;20380;-40
2024/04/11 05:16:41;;;;;;;5.40;3.47;;;6.40;66.10;;;8.54;49.12;99158.41;5379203;26;20126;-40
2024/04/11 05:19:15;;;;;;;3.63;2.10;;;6.50;66.40;;;8.53;48.99;99157.56;5380395;26;20032;-40
2024/04/11 05:21:45;;;;;;;;;;;6.50;66.50;;;8.53;48.90;99159.34;5380310;26;20460;-39
2024/04/11 05:24:12;;;;;;;3.37;2.53;;;6.40;67.10;;;8.58;49.10;99160.69;5379112;26;19962;-39
2024/04/11 05:26:40;;;;;;;6.47;2.77;;;6.50;66.00;;;8.59;49.08;99165.06;5378882;26;20032;-39
2024/04/11 05:29:08;;;;;;;5.33;2.50;;;6.50;65.30;;;8.62;48.99;99166.63;5406749;26;20044;-39
2024/04/11 05:31:37;;;;;;;9.20;3.17;;;6.60;65.10;;;8.60;48.84;99165.91;5379089;26;20044;-39
2024/04/11 05:34:13;;;;;;;6.50;3.30;;;6.60;65.20;;;8.59;49.02;99169.53;5378079;26;20036;-40
2024/04/11 05:36:44;;;;;;;6.57;3.83;;;6.50;65.40;;;8.60;49.08;99174.72;5378850;26;20036;-40
2024/04/11 05:39:15;;;;;;;7.53;3.30;;;6.60;65.40;;;8.63;49.07;99168.34;5376769;26;20032;-41
2024/04/11 05:41:45;;;;;;;7.47;3.53;;;6.70;65.30;;;8.69;49.37;99172.38;5378472;26;20347;-40
2024/04/11 05:44:14;;;;;;;7.93;3.00;;;6.70;65.20;;;8.75;49.11;99164.78;5377917;26;20032;-40
2024/04/11 05:46:43;;;;;;;20.93;3.50;;;6.90;65.70;;;8.80;49.33;99160.00;5378327;26;20040;-41
2024/04/11 05:49:12;;;;;;;7.00;3.13;;;6.90;65.50;;;8.84;49.40;99163.25;5375957;26;20039;-40
2024/04/11 05:51:40;;;;;;;7.83;3.23;;;7.00;65.50;;;8.90;49.04;99161.94;5378548;26;20036;-40
2024/04/11 05:54:10;;;;;;;6.93;2.83;;;7.00;65.00;;;8.93;49.13;99169.69;5377770;26;20075;-40
2024/04/11 05:56:38;;;;;;;9.13;3.30;;;7.10;64.80;;;8.96;49.13;99172.16;5390865;26;20408;-41
2024/04/11 05:59:08;;;;;;;7.33;3.80;;;7.10;64.50;;;9.00;48.86;99173.59;5378414;26;20048;-41
2024/04/11 06:01:37;;;;;;;5.53;3.50;;;7.10;64.20;;;9.01;48.92;99173.47;5391129;26;20024;-42
2024/04/11 06:04:06;;;;;;;6.90;3.30;;;7.20;64.10;;;9.06;49.44;99173.16;5390304;26;20032;-42
2024/04/11 06:06:35;;;;;;;9.53;3.43;;;7.30;64.30;;;9.11;49.07;99172.78;5378219;26;20032;-40
2024/04/11 06:09:03;;;;;;;6.60;3.93;;;7.30;64.50;;;9.16;49.16;99163.53;5378157;26;20488;-42
2024/04/11 06:11:31;;;;;;;5.50;3.17;;;7.40;63.90;;;9.22;49.15;99181.66;5347346;26;20032;-42
2024/04/11 06:14:00;;;;;;;5.30;2.80;;;7.50;64.10;;;9.26;49.35;99180.47;5377685;26;20040;-42
2024/04/11 06:16:27;;;;;;;6.07;3.10;;;7.50;64.60;;;9.28;49.26;99183.00;5377664;26;20483;-41
2024/04/11 06:18:56;;;;;;;6.17;2.87;;;7.50;64.50;;;9.32;49.31;99178.31;5377249;26;20059;-40
2024/04/11 06:21:32;;;;;;;7.57;3.33;;;7.50;64.50;;;9.38;49.21;99180.50;5377997;26;20040;-39
2024/04/11 06:24:04;;;;;;;6.73;2.77;;;7.60;64.50;;;9.44;49.49;99180.91;5372436;26;20018;-40
2024/04/11 06:26:35;;;;;;;6.43;3.05;;;7.70;64.40;;;9.50;49.37;99192.88;5404432;26;20104;-39
2024/04/11 06:29:07;;;;;;;6.13;3.23;;;7.80;64.40;;;9.51;49.49;99196.38;5375894;26;20044;-39
2024/04/11 06:31:38;;;;;;;6.93;2.83;;;7.70;65.50;;;9.47;49.76;99203.75;5377136;26;20099;-40
2024/04/11 06:34:08;;;;;;;5.03;3.10;;;7.70;66.30;;;9.46;50.21;99210.03;5377326;26;20064;-40
2024/04/11 06:36:38;;;;;;;7.77;2.83;;;7.60;66.90;;;9.50;49.72;99211.50;5377570;26;20040;-41
2024/04/11 06:39:10;;;;;;;8.40;3.40;;;7.70;66.00;;;9.58;49.74;99210.91;5377788;26;20036;-40
2024/04/11 06:41:38;;;;;;;7.90;3.30;;;7.80;65.20;;;9.66;49.86;99214.66;5375057;26;20028;-40
2024/04/11 06:44:08;;;;;;;5.33;2.87;;;8.00;64.80;;;9.72;49.64;99212.50;5376927;26;20368;-40
2024/04/11 06:46:37;;;;;;;7.60;3.20;;;8.00;64.60;;;9.80;49.84;99216.25;5377788;26;20365;-40
2024/04/11 06:49:05;;;;;;;5.43;3.20;;;8.10;65.30;;;9.86;50.05;99222.94;5377050;26;20345;-39
2024/04/11 06:51:37;;;;;;;6.07;3.30;;;8.30;65.60;;;9.93;49.96;99216.19;5377110;26;20011;-39
2024/04/11 06:54:05;;;;;;;4.70;2.90;;;8.40;64.90;;;10.00;49.75;99225.38;5375147;26;20520;-40
2024/04/11 06:56:58;;;;;;;8.40;3.30;;;8.40;64.30;;;10.07;49.69;99217.75;5377458;26;20041;-39
2024/04/11 06:59:27;;;;;;;7.10;3.43;;;8.60;64.10;;;10.16;49.35;99216.22;5377863;26;20147;-39
2024/04/11 07:01:58;;;;;;;10.10;3.27;;;8.60;63.20;;;10.24;49.36;99219.09;5360371;26;20028;-39
2024/04/11 07:04:26;;;;;;;9.60;2.97;;;8.70;62.70;;;10.31;49.14;99209.69;5376625;26;20368;-39
2024/04/11 07:06:57;;;;;;;8.23;2.90;;;8.80;62.40;;;10.39;49.07;99217.06;5376965;26;20040;-39
2024/04/11 07:09:37;;;;;;;4.63;2.57;;;8.80;61.90;;;10.44;48.76;99213.06;5375260;26;20036;-39
2024/04/11 07:12:10;;;;;;;5.33;2.57;;;8.90;61.70;;;10.52;48.63;99216.94;5365047;26;20036;-39
2024/04/11 07:14:40;;;;;;;6.07;2.78;;;9.00;61.10;;;10.58;48.68;99219.94;5376761;26;20028;-39
2024/04/11 07:17:11;;;;;;;5.67;3.23;;;9.10;60.80;;;10.65;48.55;99220.31;5377233;26;20104;-39
2024/04/11 07:19:42;;;;;;;9.63;3.07;;;9.10;61.00;;;10.71;48.86;99222.50;5389523;26;20047;-40
2024/04/11 07:22:10;;;;;;;13.80;3.60;;;9.20;62.20;;;10.78;49.17;99225.53;5376790;26;20048;-39
2024/04/11 07:24:38;;;;;;;10.43;3.30;;;9.30;63.10;;;10.83;49.52;99224.16;5376531;26;20031;-40
2024/04/11 07:27:11;;;;;;;7.70;3.37;;;9.40;64.10;;;10.90;49.89;99229.00;5404015;26;20162;-39
2024/04/11 07:29:39;;;;;;;7.03;4.47;;;9.40;64.90;;;10.96;49.96;99232.00;5376935;26;20036;-39
2024/04/11 07:32:07;;;;;;;6.80;3.03;;;9.50;64.40;;;11.01;49.92;99231.63;5377424;26;20052;-39
2024/04/11 07:34:35;;;;;;;7.53;4.60;;;9.60;64.10;;;11.06;49.72;99232.09;5376297;26;20036;-40
2024/04/11 07:37:02;;;;;;;11.13;3.20;;;9.60;63.30;;;11.12;49.58;99228.94;5376606;26;20033;-39
2024/04/11 07:39:32;;;;;;;7.30;4.03;;;9.70;63.50;;;11.18;49.70;99228.41;5376589;26;20372;-39
2024/04/11 07:42:18;;;;;;;6.30;3.43;;;9.80;63.60;;;11.25;49.89;99226.09;5376740;26;20041;-39
2024/04/11 07:44:46;;;;;;;5.93;3.73;;;9.80;64.00;;;11.32;49.87;99221.09;5376388;26;20393;-39
2024/04/11 07:47:16;;;;;;;7.67;4.13;;;9.80;64.70;;;11.37;50.04;99218.91;5374690;26;20036;-40
2024/04/11 07:49:52;;;;;;;7.43;3.73;;;9.90;64.80;;;11.42;50.14;99220.22;5376418;26;20044;-40
2024/04/11 07:52:20;;;;;;;6.07;3.80;;;10.00;64.60;;;11.48;50.06;99226.03;5377703;26;20048;-39
2024/04/11 07:54:50;;;;;;;8.97;3.63;;;10.00;64.30;;;11.55;50.29;99224.50;5379646;26;20535;-40
2024/04/11 07:57:21;;;;;;;8.30;3.90;;;10.10;64.20;;;11.61;49.92;99218.66;5377962;26;20461;-40
2024/04/11 07:59:49;;;;;;;7.33;3.60;;;10.20;63.80;;;11.67;49.56;99225.31;5379943;26;20402;-40
2024/04/11 08:02:18;;;;;;;11.00;4.60;;;10.30;63.40;;;11.72;49.52;99225.78;5380199;26;20036;-40
2024/04/11 08:04:47;;;;;;;8.00;3.73;;;10.30;63.20;;;11.75;50.07;99229.03;5379769;26;20045;-40
2024/04/11 08:07:15;;;;;;;8.07;3.67;;;10.30;63.10;;;11.81;49.28;99227.66;5379630;26;20044;-40
2024/04/11 08:09:55;;;;;;;4.93;3.40;;;10.40;62.80;;;11.87;49.24;99232.47;5378526;26;20032;-40
2024/04/11 08:12:23;;;;;;;7.13;4.23;;;10.50;62.60;;;11.95;49.14;99231.84;5377456;26;20041;-40
2024/04/11 08:14:52;;;;;;;7.40;3.40;;;10.50;62.40;;;12.01;49.68;99221.47;5379327;26;20036;-40
2024/04/11 08:17:20;;;;;;;5.37;3.27;;;10.60;62.30;;;12.10;49.09;99224.38;5379839;26;20045;-40
2024/04/11 08:19:48;;;;;;;5.43;3.33;;;10.70;61.70;;;12.15;48.72;99209.59;5378107;26;20032;-40
2024/04/11 08:22:27;;;;;;;7.40;3.60;;;10.80;61.20;;;12.24;48.93;99218.66;5365707;26;20016;-39
2024/04/11 08:24:56;;;;;;;6.83;3.40;;;10.90;61.00;;;12.31;49.16;99222.50;5395397;26;20008;-41
2024/04/11 08:27:23;;;;;;;8.80;3.07;;;10.90;61.80;;;12.38;48.94;99230.81;5370886;26;20269;-39
2024/04/11 08:29:51;;;;;;;6.50;3.00;;;11.00;60.60;;;12.43;48.93;99225.03;5373286;26;20022;-39
2024/04/11 08:32:21;;;;;;;6.67;3.27;;;11.10;60.60;;;12.50;48.70;99231.56;5373561;26;20484;-39
2024/04/11 08:34:51;;;;;;;13.73;3.40;;;11.10;60.20;;;12.58;48.12;99234.38;5372294;26;20092;-39
2024/04/11 08:37:20;;;;;;;5.40;3.07;;;11.20;60.10;;;12.65;47.98;99237.38;5370515;26;20014;-39
2024/04/11 08:39:47;;;;;;;5.80;3.53;;;11.20;59.70;;;12.69;47.83;99234.28;5368823;26;20004;-39
2024/04/11 08:42:15;;;;;;;7.63;3.37;;;11.30;58.40;;;12.75;47.69;99227.56;5369435;26;20018;-40
2024/04/11 08:44:45;;;;;;;7.60;2.90;;;11.40;58.40;;;12.83;47.01;99229.56;5366840;26;20432;-39
2024/04/11 08:47:14;;;;;;;3.60;2.53;;;11.50;57.20;;;12.89;46.52;99232.53;5364536;26;20358;-39
2024/04/11 08:49:42;;;;;;;9.47;4.50;;;11.50;56.20;;;12.94;46.43;99232.94;5368872;26;20000;-39
2024/04/11 08:52:14;;;;;;;6.15;3.03;;;11.60;55.40;;;12.99;45.81;99222.69;5369162;26;20273;-39
2024/04/11 08:54:45;;;;;;;6.05;2.50;;;11.60;54.20;;;13.05;45.87;99228.50;5368524;26;20019;-39
2024/04/11 08:57:13;;;;;;;5.87;2.53;;;11.70;54.60;;;13.09;45.30;99224.56;5366574;26;20000;-39
2024/04/11 08:59:44;;;;;;;5.22;2.05;;;11.80;53.90;;;13.12;44.97;99230.44;5368442;26;20391;-39
2024/04/11 09:02:13;;;;;;;3.80;1.95;;;11.80;53.00;;;13.20;44.99;99232.41;5365073;26;20017;-39
2024/04/11 09:04:41;;;;;;;10.97;4.23;;;11.90;53.50;;;13.25;44.66;99237.38;5368214;26;20005;-39
2024/04/11 09:07:21;;;;;;;3.90;2.28;;;11.90;53.00;;;13.30;44.48;99241.34;5370995;26;20361;-39
2024/04/11 09:09:50;;;;;;;5.95;2.28;;;12.00;52.90;;;13.37;44.38;99239.78;5370240;26;20036;-39
2024/04/11 09:12:22;;;;;;;5.95;2.38;;;12.00;52.50;;;13.43;43.68;99253.59;5370008;26;20018;-39
2024/04/11 09:14:50;;;;;;;5.53;2.70;;;12.10;51.60;;;13.49;43.57;99250.34;5364081;26;20000;-39
2024/04/11 09:17:18;;;;;;;6.07;2.47;;;12.20;51.50;;;13.50;42.74;99244.88;5369080;26;20381;-39
2024/04/11 09:19:49;;;;;;;7.97;2.53;;;12.20;48.80;;;13.54;42.67;99256.13;5369027;26;20359;-39
2024/04/11 09:22:21;;;;;;;5.15;2.45;;;12.20;50.10;;;13.57;42.69;99250.50;5367456;26;20018;-39
2024/04/11 09:24:50;;;;;;;3.58;2.00;;;12.20;50.20;;;13.61;43.03;99251.91;5363795;26;20022;-40
2024/04/11 09:27:20;;;;;;;3.88;3.00;;;12.30;50.70;;;13.68;43.01;99260.22;5370409;26;20347;-39
2024/04/11 09:29:48;;;;;;;5.25;2.85;;;12.40;51.30;;;13.76;43.50;99260.34;5369570;26;20047;-40
2024/04/11 09:32:21;;;;;;;15.00;3.55;;;12.40;52.20;;;13.82;43.35;99258.94;5372170;26;20019;-40
2024/04/11 09:34:53;;;;;;;3.42;2.50;;;12.50;51.40;;;13.89;42.82;99265.41;5369619;26;20008;-39
2024/04/11 09:37:26;;;;;;;6.82;2.67;;;12.60;50.10;;;13.93;43.05;99262.28;5366956;26;20004;-39
2024/04/11 09:39:56;;;;;;;4.40;2.72;;;12.70;50.30;;;13.95;41.80;99262.16;5370798;26;20471;-39
2024/04/11 09:42:26;;;;;;;4.07;2.38;;;12.70;48.50;;;13.96;41.58;99264.69;5370500;26;20004;-39
2024/04/11 09:44:55;;;;;;;6.45;2.22;;;12.70;48.20;;;14.01;41.55;99269.63;5369761;26;20008;-39
2024/04/11 09:47:31;;;;;;;5.70;2.95;;;12.70;48.70;;;14.06;41.34;99272.72;5367599;26;20112;-39
2024/04/11 09:50:04;;;;;;;6.00;2.40;;;12.70;48.00;;;14.11;41.59;99273.13;5370443;26;20197;-39
2024/04/11 09:52:34;;;;;;;4.88;2.45;;;12.80;48.50;;;14.18;41.39;99270.72;5371908;26;20055;-39
2024/04/11 09:55:09;;;;;;;5.10;2.55;;;12.90;48.40;;;14.25;41.42;99277.19;5372486;26;20032;-40
2024/04/11 09:57:44;;;;;;;4.80;2.65;;;12.90;47.70;;;14.30;41.16;99279.44;5372551;26;20031;-39
2024/04/11 10:00:48;;;;;;;8.18;3.22;;;13.00;47.70;;;14.28;41.33;99284.09;5369968;26;20015;-40
2024/04/11 10:03:12;;;;;;;3.97;2.58;;;13.00;47.60;;;14.23;41.16;99276.50;5371486;26;21403;-39
2024/04/11 10:05:45;;;;;;;6.88;2.88;;;12.90;48.30;;;14.25;41.20;99276.31;5397953;26;20000;-39
2024/04/11 10:08:38;;;;;;;8.57;3.67;;;12.90;48.50;;;14.16;41.59;99276.22;5372451;26;20040;-39
2024/04/11 10:11:10;;;;;;;8.32;3.10;;;13.10;48.80;;;14.34;41.78;99283.50;5372915;26;20055;-39
2024/04/11 10:13:42;;;;;;;9.00;3.28;;;13.10;48.40;;;14.39;41.06;99281.25;5372021;26;20404;-39
2024/04/11 10:16:29;;;;;;;6.95;3.05;;;13.20;47.90;;;14.39;41.44;99278.56;5367511;26;20026;-39
2024/04/11 10:19:04;;;;;;;7.75;3.58;;;13.20;47.20;;;14.48;41.13;99284.88;5370458;26;20554;-39
2024/04/11 10:21:38;;;;;;;4.82;2.50;;;13.20;47.60;;;14.58;41.05;99288.41;5372437;26;20019;-39
2024/04/11 10:24:31;;;;;;;4.05;2.80;;;13.30;47.60;;;14.69;40.94;99282.84;5341202;26;20053;-39
2024/04/11 10:27:10;;;;;;;7.80;3.40;;;13.50;46.80;;;14.77;40.01;99277.59;5345734;26;20425;-40
2024/04/11 10:29:43;;;;;;;5.43;3.00;;;13.50;45.30;;;14.83;39.96;99278.84;5337394;26;20520;-39
2024/04/11 10:32:22;;;;;;;6.00;2.90;;;13.60;46.00;;;14.87;40.01;99277.56;5342359;26;20025;-40
2024/04/11 10:34:58;;;;;;;6.35;2.85;;;13.60;45.10;;;14.94;39.50;99278.63;5341850;26;20515;-39
2024/04/11 10:37:29;;;;;;;4.63;3.10;;;13.70;45.80;;;14.92;39.44;99271.72;5342853;26;20036;-39
2024/04/11 10:39:58;;;;;;;8.82;3.47;;;13.60;45.80;;;14.95;39.38;99277.66;5340599;26;20033;-39